Fluvanna, Texas
Current Conditions -  °F | °C
As of 7:15 PM on Sunday 23 Nov 2014 (Local Time) from KSNK Reporting Station
Scattered Clouds Scattered Clouds  
Wind Chill: 39°   Ceiling: Unl
Heat Index: 47°   Visibility: 10mi
Dew Point: 34°   Wind: 18mph
Humidity: 61%   Direction: 350°N
Pressure: 29.85"   Gusts: 31mph
Location:  32.89°N, 101.15°W
Report Text: KSNK 240115Z AUTO 35016G27KT 10SM SCT120 08/01 A2985 RMK AO2 T00810010
Loading
Personal Weather Stations






























Interactive Weather Map New forecast layout! Learn more

10-Day Weather Forecast

Advertisements
Track Severe Weather on mobile